createdAt,value
2023-05-19T00:01:48.343Z,10.53
2023-05-19T00:04:19.028Z,10.41
2023-05-19T00:06:51.559Z,10.21
2023-05-19T00:09:18.619Z,10.33
2023-05-19T00:11:47.991Z,10.28
2023-05-19T00:14:15.364Z,10.22
2023-05-19T00:16:43.040Z,10.19
2023-05-19T00:19:12.530Z,10.29
2023-05-19T00:21:40.173Z,10.32
2023-05-19T00:24:10.190Z,10.36
2023-05-19T00:26:42.795Z,10.42
2023-05-19T00:29:09.749Z,10.37
2023-05-19T00:31:36.716Z,10.33
2023-05-19T00:34:03.634Z,10.26
2023-05-19T00:36:31.012Z,10.13
2023-05-19T00:38:57.833Z,10.19
2023-05-19T00:41:25.080Z,10.29
2023-05-19T00:43:51.945Z,10.35
2023-05-19T00:46:19.914Z,10.18
2023-05-19T00:48:46.810Z,10.19
2023-05-19T00:51:16.928Z,10.20
2023-05-19T00:53:49.157Z,10.05
2023-05-19T00:56:17.524Z,9.99
2023-05-19T00:58:45.352Z,10.05
2023-05-19T01:01:14.466Z,10.02
2023-05-19T01:03:43.852Z,9.79
2023-05-19T01:06:12.009Z,9.77
2023-05-19T01:08:42.282Z,9.90
2023-05-19T01:11:11.867Z,9.89
2023-05-19T01:13:41.273Z,9.84
2023-05-19T01:16:22.667Z,9.78
2023-05-19T01:19:10.905Z,9.74
2023-05-19T01:22:06.737Z,9.79
2023-05-19T01:25:44.196Z,9.76
2023-05-19T01:29:00.785Z,9.83
2023-05-19T01:31:28.818Z,9.82
2023-05-19T01:33:57.109Z,9.82
2023-05-19T01:36:26.323Z,9.88
2023-05-19T01:38:58.197Z,9.82
2023-05-19T01:41:26.739Z,9.89
2023-05-19T01:43:54.279Z,9.93
2023-05-19T01:46:22.433Z,9.82
2023-05-19T01:48:50.167Z,9.71
2023-05-19T01:51:17.145Z,9.70
2023-05-19T01:53:44.122Z,9.78
2023-05-19T01:56:11.302Z,9.82
2023-05-19T01:58:51.497Z,9.71
2023-05-19T02:01:49.101Z,9.75
2023-05-19T02:04:20.131Z,9.77
2023-05-19T02:07:15.653Z,9.72
2023-05-19T02:10:11.367Z,9.63
2023-05-19T02:12:40.742Z,9.65
2023-05-19T02:15:41.958Z,9.68
2023-05-19T02:18:18.059Z,9.68
2023-05-19T02:20:45.478Z,9.68
2023-05-19T02:23:12.605Z,9.68
2023-05-19T02:25:39.420Z,9.65
2023-05-19T02:28:08.940Z,9.74
2023-05-19T02:30:35.813Z,9.78
2023-05-19T02:33:02.874Z,9.73
2023-05-19T02:35:29.811Z,9.63
2023-05-19T02:37:57.226Z,9.61
2023-05-19T02:40:24.066Z,9.59
2023-05-19T02:42:50.896Z,9.50
2023-05-19T02:45:17.935Z,9.62
2023-05-19T02:47:44.847Z,9.68
2023-05-19T02:50:11.759Z,9.63
2023-05-19T02:52:41.351Z,9.62
2023-05-19T02:55:08.667Z,9.66
2023-05-19T02:57:35.802Z,9.61
2023-05-19T03:00:02.764Z,9.53
2023-05-19T03:02:29.770Z,9.50
2023-05-19T03:04:56.641Z,9.51
2023-05-19T03:07:26.714Z,9.50
2023-05-19T03:09:56.114Z,9.56
2023-05-19T03:12:22.906Z,9.54
2023-05-19T03:14:49.831Z,9.60
2023-05-19T03:17:16.681Z,9.61
2023-05-19T03:19:46.615Z,9.66
2023-05-19T03:22:14.744Z,9.71
2023-05-19T03:24:42.296Z,9.72
2023-05-19T03:27:09.097Z,9.73
2023-05-19T03:29:37.547Z,9.73
2023-05-19T03:32:05.135Z,9.74
2023-05-19T03:34:32.976Z,9.78
2023-05-19T03:36:59.973Z,9.82
2023-05-19T03:39:26.985Z,9.80
2023-05-19T03:41:54.221Z,9.68
2023-05-19T03:44:21.310Z,9.60
2023-05-19T03:46:48.847Z,9.63
2023-05-19T03:49:15.748Z,9.53
2023-05-19T03:51:44.324Z,9.59
2023-05-19T03:54:11.187Z,9.61
2023-05-19T03:56:40.966Z,9.51
2023-05-19T03:59:07.796Z,9.56
2023-05-19T04:01:34.612Z,9.65
2023-05-19T04:04:01.447Z,9.58
2023-05-19T04:06:28.410Z,9.56
2023-05-19T04:08:55.669Z,9.65
2023-05-19T04:11:22.481Z,9.78
2023-05-19T04:13:49.284Z,9.89
2023-05-19T04:16:16.610Z,9.93
2023-05-19T04:18:46.508Z,9.85
2023-05-19T04:21:14.925Z,9.73
2023-05-19T04:23:41.749Z,9.70
2023-05-19T04:26:09.845Z,9.88
2023-05-19T04:28:39.876Z,9.99
2023-05-19T04:31:10.768Z,9.94
2023-05-19T04:33:38.365Z,9.96
2023-05-19T04:36:11.858Z,10.02
2023-05-19T04:38:40.272Z,10.04
2023-05-19T04:41:10.879Z,10.03
2023-05-19T04:43:44.479Z,10.12
2023-05-19T04:46:13.928Z,10.10
2023-05-19T04:48:41.158Z,10.12
2023-05-19T04:51:08.185Z,10.21
2023-05-19T04:53:35.203Z,10.28
2023-05-19T04:56:02.412Z,10.33
2023-05-19T04:58:30.130Z,10.34
2023-05-19T05:00:58.476Z,10.37
2023-05-19T05:03:26.436Z,10.41
2023-05-19T05:05:53.541Z,10.44
2023-05-19T05:08:26.028Z,10.50
2023-05-19T05:10:53.788Z,10.61
2023-05-19T05:13:23.959Z,10.64
2023-05-19T05:15:54.111Z,10.73
2023-05-19T05:18:21.315Z,10.76
2023-05-19T05:20:48.783Z,10.85
2023-05-19T05:23:16.726Z,10.89
2023-05-19T05:25:44.745Z,10.87
2023-05-19T05:28:12.522Z,10.88
2023-05-19T05:30:39.603Z,10.92
2023-05-19T05:33:06.623Z,10.99
2023-05-19T05:35:34.186Z,11.06
2023-05-19T05:38:01.745Z,11.11
2023-05-19T05:40:28.882Z,11.16
2023-05-19T05:42:58.892Z,11.19
2023-05-19T05:45:26.552Z,11.26
2023-05-19T05:47:53.887Z,11.42
2023-05-19T05:50:21.283Z,11.51
2023-05-19T05:52:50.861Z,11.63
2023-05-19T05:55:18.346Z,11.74
2023-05-19T05:57:45.351Z,11.84
2023-05-19T06:00:15.846Z,11.88
2023-05-19T06:02:48.798Z,11.90
2023-05-19T06:05:18.705Z,11.87
2023-05-19T06:07:45.781Z,11.81
2023-05-19T06:10:12.717Z,11.84
2023-05-19T06:12:41.559Z,11.92
2023-05-19T06:15:08.981Z,11.95
2023-05-19T06:17:36.076Z,11.99
2023-05-19T06:20:05.894Z,12.08
2023-05-19T06:22:33.120Z,12.17
2023-05-19T06:25:00.513Z,12.26
2023-05-19T06:27:32.561Z,12.26
2023-05-19T06:30:02.476Z,12.28
2023-05-19T06:32:29.885Z,12.35
2023-05-19T06:34:56.766Z,12.29
2023-05-19T06:37:24.169Z,12.32
2023-05-19T06:39:55.049Z,12.45
2023-05-19T06:42:22.934Z,12.53
2023-05-19T06:44:51.188Z,12.64
2023-05-19T06:47:18.645Z,12.70
2023-05-19T06:49:46.477Z,12.76
2023-05-19T06:52:13.366Z,12.79
2023-05-19T06:54:40.824Z,12.90
2023-05-19T06:57:07.647Z,12.99
2023-05-19T06:59:34.510Z,13.06
2023-05-19T07:02:05.467Z,13.14
2023-05-19T07:04:32.835Z,13.26
2023-05-19T07:06:59.841Z,13.31
2023-05-19T07:09:26.719Z,13.45
2023-05-19T07:11:56.493Z,13.54
2023-05-19T07:14:27.162Z,13.65
2023-05-19T07:16:54.080Z,13.72
2023-05-19T07:19:20.977Z,13.82
2023-05-19T07:21:48.098Z,13.98
2023-05-19T07:24:14.929Z,14.12
2023-05-19T07:26:42.713Z,14.24
2023-05-19T07:29:09.749Z,14.41
2023-05-19T07:31:36.676Z,14.58
2023-05-19T07:34:03.576Z,14.72
2023-05-19T07:36:38.487Z,14.84
2023-05-19T07:39:05.492Z,15.00
2023-05-19T07:41:34.272Z,15.17
2023-05-19T07:44:02.247Z,15.30
2023-05-19T07:46:29.179Z,15.39
2023-05-19T07:48:56.153Z,15.45
2023-05-19T07:51:23.194Z,15.58
2023-05-19T07:53:50.150Z,15.72
2023-05-19T07:56:17.122Z,15.71
2023-05-19T07:58:44.664Z,15.60
2023-05-19T08:01:11.682Z,15.54
2023-05-19T08:03:38.689Z,15.48
2023-05-19T08:06:06.095Z,15.73
2023-05-19T08:08:33.383Z,15.88
2023-05-19T08:11:04.875Z,16.04
2023-05-19T08:13:31.905Z,16.18
2023-05-19T08:15:59.970Z,16.19
2023-05-19T08:18:27.123Z,16.44
2023-05-19T08:20:54.096Z,16.77
2023-05-19T08:23:22.346Z,16.76
2023-05-19T08:25:49.249Z,16.52
2023-05-19T08:28:16.265Z,16.45
2023-05-19T08:30:43.174Z,16.63
2023-05-19T08:33:10.267Z,16.87
2023-05-19T08:35:37.926Z,16.88
2023-05-19T08:38:04.789Z,16.80
2023-05-19T08:40:35.079Z,16.72
2023-05-19T08:43:02.249Z,16.37
2023-05-19T08:45:29.948Z,16.14
2023-05-19T08:47:57.910Z,16.09
2023-05-19T08:50:31.025Z,16.02
2023-05-19T08:53:18.268Z,15.99
2023-05-19T08:56:21.993Z,15.99
2023-05-19T08:58:51.661Z,15.93
2023-05-19T09:01:20.340Z,15.98
2023-05-19T09:03:49.758Z,16.03
2023-05-19T09:06:18.206Z,16.08
2023-05-19T09:08:45.195Z,16.05
2023-05-19T09:11:12.532Z,15.90
2023-05-19T09:13:39.582Z,15.91
2023-05-19T09:16:08.058Z,15.91
2023-05-19T09:18:38.831Z,15.94
2023-05-19T09:21:07.187Z,16.05
2023-05-19T09:23:34.266Z,16.04
2023-05-19T09:26:07.740Z,15.99
2023-05-19T09:28:37.756Z,16.08
2023-05-19T09:31:11.607Z,16.27
2023-05-19T09:33:46.088Z,16.35
2023-05-19T09:36:13.798Z,16.48
2023-05-19T09:38:41.603Z,16.57
2023-05-19T09:41:09.544Z,16.61
2023-05-19T09:43:36.767Z,16.75
2023-05-19T09:46:12.774Z,16.96
2023-05-19T09:48:41.285Z,17.14
2023-05-19T09:51:10.677Z,17.15
2023-05-19T09:53:38.858Z,17.24
2023-05-19T09:56:08.731Z,17.39
2023-05-19T09:58:36.651Z,17.37
2023-05-19T10:01:05.449Z,17.38
2023-05-19T10:03:34.337Z,17.41
2023-05-19T10:06:03.967Z,17.43
2023-05-19T10:08:32.382Z,17.29
2023-05-19T10:11:00.192Z,17.04
2023-05-19T10:13:29.425Z,16.95
2023-05-19T10:15:59.684Z,16.87
2023-05-19T10:18:29.230Z,16.87
2023-05-19T10:20:57.946Z,16.88
2023-05-19T10:23:26.524Z,16.80
2023-05-19T10:25:58.791Z,16.74
2023-05-19T10:28:35.541Z,16.63
2023-05-19T10:31:07.450Z,16.61
2023-05-19T10:34:19.037Z,16.60
2023-05-19T10:37:13.936Z,16.66
2023-05-19T10:39:44.506Z,16.70
2023-05-19T10:42:25.952Z,16.74
2023-05-19T10:45:13.922Z,16.98
2023-05-19T10:47:42.015Z,17.25
2023-05-19T10:50:09.880Z,17.39
2023-05-19T10:52:40.602Z,17.46
2023-05-19T10:55:10.224Z,17.35
2023-05-19T10:57:37.134Z,17.22
2023-05-19T11:00:28.769Z,17.07
2023-05-19T11:03:24.486Z,17.06
2023-05-19T11:05:52.294Z,17.01
2023-05-19T11:08:33.399Z,16.90
2023-05-19T11:11:14.766Z,16.88
2023-05-19T11:13:48.082Z,16.84
2023-05-19T11:16:19.172Z,16.87
2023-05-19T11:18:50.498Z,16.87
2023-05-19T11:21:19.884Z,16.81
2023-05-19T11:23:47.149Z,16.68
2023-05-19T11:26:14.008Z,16.60
2023-05-19T11:28:41.672Z,16.45
2023-05-19T11:31:10.929Z,16.42
2023-05-19T11:33:39.509Z,16.39
2023-05-19T11:36:07.931Z,16.35
2023-05-19T11:38:35.448Z,16.37
2023-05-19T11:41:04.388Z,16.33
2023-05-19T11:43:31.399Z,16.16
2023-05-19T11:45:58.546Z,16.10
2023-05-19T11:48:26.779Z,16.10
2023-05-19T11:50:54.273Z,16.07
2023-05-19T11:53:21.397Z,16.07
2023-05-19T11:55:49.199Z,16.15
2023-05-19T11:58:17.412Z,16.36
2023-05-19T12:00:48.292Z,16.62
2023-05-19T12:03:26.423Z,16.79
2023-05-19T12:05:54.293Z,16.78
2023-05-19T12:08:21.628Z,16.81
2023-05-19T12:10:50.765Z,16.81
2023-05-19T12:13:17.789Z,16.86
2023-05-19T12:15:44.991Z,16.86
2023-05-19T12:18:12.081Z,16.83
2023-05-19T12:20:39.387Z,16.86
2023-05-19T12:23:06.525Z,16.94
2023-05-19T12:25:34.218Z,16.93
2023-05-19T12:28:04.685Z,16.84
2023-05-19T12:30:33.031Z,16.78
2023-05-19T12:33:01.953Z,16.81
2023-05-19T12:35:36.209Z,16.84
2023-05-19T12:38:05.308Z,16.81
2023-05-19T12:40:40.860Z,16.69
2023-05-19T12:43:12.204Z,16.67
2023-05-19T12:45:42.689Z,16.64
2023-05-19T12:48:13.861Z,16.62
2023-05-19T12:50:40.766Z,16.60
2023-05-19T12:53:15.454Z,16.56
2023-05-19T12:55:44.904Z,16.55
2023-05-19T12:58:12.938Z,16.60
2023-05-19T13:00:47.334Z,16.63
2023-05-19T13:03:20.418Z,16.67
2023-05-19T13:05:53.234Z,16.77
2023-05-19T13:08:23.887Z,16.92
2023-05-19T13:10:51.041Z,16.93
2023-05-19T13:13:21.941Z,16.94
2023-05-19T13:15:49.348Z,16.93
2023-05-19T13:18:18.303Z,16.94
2023-05-19T13:20:47.063Z,16.96
2023-05-19T13:23:14.799Z,16.92
2023-05-19T13:25:44.919Z,16.80
2023-05-19T13:28:12.141Z,16.68
2023-05-19T13:30:41.829Z,16.54
2023-05-19T13:33:09.020Z,16.46
2023-05-19T13:35:39.050Z,16.44
2023-05-19T13:38:09.532Z,16.44
2023-05-19T13:40:36.839Z,16.43
2023-05-19T13:43:04.822Z,16.41
2023-05-19T13:45:32.067Z,16.46
2023-05-19T13:47:58.977Z,16.49
2023-05-19T13:50:26.423Z,16.50
2023-05-19T13:52:54.331Z,16.47
2023-05-19T13:55:21.351Z,16.42
2023-05-19T13:57:48.170Z,16.47
2023-05-19T14:00:18.899Z,16.52
2023-05-19T14:02:46.259Z,16.54
2023-05-19T14:05:13.419Z,16.50
2023-05-19T14:07:40.667Z,16.44
2023-05-19T14:10:08.575Z,16.38
2023-05-19T14:12:49.581Z,16.37
2023-05-19T14:15:23.578Z,16.51
2023-05-19T14:17:50.498Z,16.66
2023-05-19T14:20:17.451Z,16.72
2023-05-19T14:22:44.358Z,16.77
2023-05-19T14:25:11.255Z,16.79
2023-05-19T14:27:39.825Z,16.76
2023-05-19T14:30:07.902Z,16.80
2023-05-19T14:32:34.854Z,16.72
2023-05-19T14:35:02.209Z,16.65
2023-05-19T14:37:29.042Z,16.65
2023-05-19T14:39:57.752Z,16.58
2023-05-19T14:42:24.979Z,16.51
2023-05-19T14:44:51.899Z,16.45
2023-05-19T14:47:21.247Z,16.37
2023-05-19T14:49:48.245Z,16.29
2023-05-19T14:52:15.339Z,16.22
2023-05-19T14:54:42.288Z,16.16
2023-05-19T14:57:09.150Z,16.16
2023-05-19T14:59:39.191Z,16.16
2023-05-19T15:02:06.306Z,16.17
2023-05-19T15:04:33.158Z,16.16
2023-05-19T15:09:32.657Z,16.20
2023-05-19T15:12:01.324Z,16.25
2023-05-19T15:14:30.549Z,16.26
2023-05-19T15:17:00.125Z,16.26
2023-05-19T15:19:27.270Z,16.18
2023-05-19T15:21:55.952Z,16.11
2023-05-19T15:24:22.946Z,16.07
2023-05-19T15:26:49.918Z,16.06
2023-05-19T15:29:16.747Z,16.08
2023-05-19T15:31:43.652Z,16.12
2023-05-19T15:34:10.560Z,16.14
2023-05-19T15:36:37.500Z,16.15
2023-05-19T15:39:07.678Z,16.16
2023-05-19T15:41:34.786Z,16.15
2023-05-19T15:44:02.731Z,16.14
2023-05-19T15:46:30.498Z,16.15
2023-05-19T15:48:57.733Z,16.13
2023-05-19T15:51:25.323Z,16.12
2023-05-19T15:53:53.579Z,16.11
2023-05-19T15:56:21.546Z,16.10
2023-05-19T15:58:48.711Z,16.02
2023-05-19T16:01:16.980Z,15.99
2023-05-19T16:03:45.388Z,15.96
2023-05-19T16:06:15.084Z,15.98
2023-05-19T16:08:44.782Z,15.96
2023-05-19T16:11:11.716Z,15.96
2023-05-19T16:13:38.592Z,15.98
2023-05-19T16:16:06.165Z,16.03
2023-05-19T16:18:33.027Z,16.05
2023-05-19T16:20:59.916Z,16.07
2023-05-19T16:23:27.408Z,16.14
2023-05-19T16:25:54.759Z,16.13
2023-05-19T16:28:23.909Z,16.15
2023-05-19T16:30:52.039Z,16.11
2023-05-19T16:33:19.083Z,16.11
2023-05-19T16:35:45.970Z,16.14
2023-05-19T16:38:12.944Z,16.14
2023-05-19T16:40:40.079Z,16.14
2023-05-19T16:43:07.361Z,16.17
2023-05-19T16:45:38.290Z,16.22
2023-05-19T16:48:05.723Z,16.22
2023-05-19T16:50:35.306Z,16.26
2023-05-19T16:53:02.557Z,16.24
2023-05-19T16:55:29.323Z,16.24
2023-05-19T16:57:56.337Z,16.27
2023-05-19T17:00:23.362Z,16.29
2023-05-19T17:02:50.472Z,16.30
2023-05-19T17:05:17.470Z,16.34
2023-05-19T17:07:44.408Z,16.34
2023-05-19T17:10:11.355Z,16.32
2023-05-19T17:12:38.323Z,16.28
2023-05-19T17:15:06.484Z,16.28
2023-05-19T17:17:33.397Z,16.28
2023-05-19T17:20:00.703Z,16.28
2023-05-19T17:22:29.490Z,16.26
2023-05-19T17:24:57.417Z,16.20
2023-05-19T17:27:24.395Z,16.18
2023-05-19T17:29:51.180Z,16.17
2023-05-19T17:32:18.162Z,16.11
2023-05-19T17:34:45.044Z,16.11
2023-05-19T17:37:11.972Z,16.08
2023-05-19T17:39:38.744Z,16.05
2023-05-19T17:42:10.992Z,16.06
2023-05-19T17:44:37.813Z,16.04
2023-05-19T17:47:07.067Z,16.05
2023-05-19T17:49:34.101Z,16.05
2023-05-19T17:52:01.400Z,16.01
2023-05-19T17:54:28.827Z,15.95
2023-05-19T17:57:01.472Z,15.87
2023-05-19T17:59:28.771Z,15.82
2023-05-19T18:01:56.566Z,15.77
2023-05-19T18:04:23.800Z,15.75
2023-05-19T18:06:52.748Z,15.72
2023-05-19T18:09:23.059Z,15.68
2023-05-19T18:11:50.091Z,15.56
2023-05-19T18:14:16.964Z,15.55
2023-05-19T18:16:44.014Z,15.54
2023-05-19T18:19:11.400Z,15.45
2023-05-19T18:21:38.389Z,15.30
2023-05-19T18:24:05.880Z,15.26
2023-05-19T18:26:33.549Z,15.23
2023-05-19T18:29:02.759Z,15.18
2023-05-19T18:31:29.747Z,15.12
2023-05-19T18:33:56.852Z,15.11
2023-05-19T18:36:24.092Z,14.98
2023-05-19T18:38:50.979Z,14.91
2023-05-19T18:41:18.316Z,14.84
2023-05-19T18:43:45.280Z,14.85
2023-05-19T18:46:13.774Z,14.76
2023-05-19T18:48:41.008Z,14.69
2023-05-19T18:51:08.923Z,14.65
2023-05-19T18:53:36.946Z,14.54
2023-05-19T18:56:04.361Z,14.44
2023-05-19T18:58:31.364Z,14.38
2023-05-19T19:00:58.892Z,14.34
2023-05-19T19:03:28.721Z,14.29
2023-05-19T19:06:01.639Z,14.12
2023-05-19T19:08:28.809Z,13.95
2023-05-19T19:11:00.334Z,13.76
2023-05-19T19:13:30.445Z,13.69
2023-05-19T19:15:57.553Z,13.62
2023-05-19T19:18:26.033Z,13.55
2023-05-19T19:20:53.214Z,13.50
2023-05-19T19:23:26.118Z,13.53
2023-05-19T19:25:53.619Z,13.47
2023-05-19T19:28:20.667Z,13.36
2023-05-19T19:30:48.072Z,13.33
2023-05-19T19:33:15.351Z,13.29
2023-05-19T19:35:45.102Z,13.26
2023-05-19T19:38:12.713Z,13.28
2023-05-19T19:40:39.521Z,13.27
2023-05-19T19:43:07.278Z,13.28
2023-05-19T19:45:39.124Z,13.24
2023-05-19T19:48:07.169Z,13.12
2023-05-19T19:50:34.760Z,13.00
2023-05-19T19:53:01.929Z,12.96
2023-05-19T19:55:30.790Z,12.93
2023-05-19T19:58:00.876Z,12.88
2023-05-19T20:00:27.762Z,12.87
2023-05-19T20:03:03.571Z,13.02
2023-05-19T20:05:32.491Z,12.95
2023-05-19T20:07:59.430Z,12.90
2023-05-19T20:10:26.309Z,12.91
2023-05-19T20:12:53.206Z,12.94
2023-05-19T20:15:20.212Z,12.90
2023-05-19T20:17:47.052Z,12.91
2023-05-19T20:20:23.167Z,12.95
2023-05-19T20:22:50.022Z,12.93
2023-05-19T20:25:16.822Z,12.87
2023-05-19T20:27:43.652Z,12.83
2023-05-19T20:30:20.063Z,12.83
2023-05-19T20:32:49.318Z,12.78
2023-05-19T20:35:47.487Z,12.70
2023-05-19T20:38:17.647Z,12.73
2023-05-19T20:40:47.376Z,12.66
2023-05-19T20:43:14.757Z,12.63
2023-05-19T20:45:46.752Z,12.61
2023-05-19T20:48:19.273Z,12.57
2023-05-19T20:51:09.936Z,12.62
2023-05-19T20:54:07.320Z,12.60
2023-05-19T20:56:34.785Z,12.52
2023-05-19T20:59:05.863Z,12.53
2023-05-19T21:01:42.891Z,12.53
2023-05-19T21:04:11.237Z,12.52
2023-05-19T21:06:45.299Z,12.54
2023-05-19T21:09:14.722Z,12.53
2023-05-19T21:11:53.438Z,12.52
2023-05-19T21:17:10.568Z,12.48
2023-05-19T21:19:47.320Z,12.48
2023-05-19T21:22:17.766Z,12.52
2023-05-19T21:24:45.579Z,12.54
2023-05-19T21:27:12.387Z,12.56
2023-05-19T21:29:39.261Z,12.63
2023-05-19T21:32:06.605Z,12.66
2023-05-19T21:34:33.814Z,12.61
2023-05-19T21:37:01.157Z,12.60
2023-05-19T21:39:27.948Z,12.56
2023-05-19T21:41:54.964Z,12.53
2023-05-19T21:44:23.737Z,12.46
2023-05-19T21:46:50.926Z,12.45
2023-05-19T21:49:17.937Z,12.46
2023-05-19T21:51:44.758Z,12.43
2023-05-19T21:54:11.748Z,12.41
2023-05-19T21:56:38.659Z,12.40
2023-05-19T21:59:05.965Z,12.43
2023-05-19T22:01:32.811Z,12.46
2023-05-19T22:03:59.980Z,12.43
2023-05-19T22:06:26.937Z,12.46
2023-05-19T22:08:53.797Z,12.43
2023-05-19T22:11:21.510Z,12.36
2023-05-19T22:13:48.394Z,12.30
2023-05-19T22:16:15.477Z,12.28
2023-05-19T22:18:44.992Z,12.33
2023-05-19T22:21:11.882Z,12.37
2023-05-19T22:23:38.689Z,12.31
2023-05-19T22:26:05.983Z,12.31
2023-05-19T22:28:32.872Z,12.26
2023-05-19T22:30:59.742Z,12.30
2023-05-19T22:33:26.511Z,12.29
2023-05-19T22:35:53.500Z,12.18
2023-05-19T22:38:20.421Z,12.19
2023-05-19T22:40:47.410Z,12.24
2023-05-19T22:43:14.267Z,12.27
2023-05-19T22:45:41.416Z,12.21
2023-05-19T22:48:11.458Z,12.19
2023-05-19T22:50:38.429Z,12.19
2023-05-19T22:53:05.486Z,12.10
2023-05-19T22:55:32.533Z,12.11
2023-05-19T22:57:59.603Z,12.14
2023-05-19T23:00:26.562Z,12.20
2023-05-19T23:02:58.158Z,12.12
2023-05-19T23:05:28.165Z,12.08
2023-05-19T23:07:55.083Z,12.02
2023-05-19T23:10:21.847Z,12.02
2023-05-19T23:12:48.823Z,12.01
2023-05-19T23:15:15.762Z,11.96
2023-05-19T23:17:42.776Z,11.96
2023-05-19T23:20:10.828Z,11.95
2023-05-19T23:22:37.683Z,11.87
2023-05-19T23:25:07.995Z,11.90
2023-05-19T23:27:36.410Z,11.97
2023-05-19T23:30:04.371Z,11.97
2023-05-19T23:32:31.220Z,12.01
2023-05-19T23:34:58.073Z,11.97
2023-05-19T23:37:24.964Z,11.97
2023-05-19T23:39:51.797Z,11.82
2023-05-19T23:42:18.748Z,11.79
2023-05-19T23:44:45.621Z,11.83
2023-05-19T23:47:12.455Z,11.78
2023-05-19T23:49:39.301Z,11.77
2023-05-19T23:52:06.866Z,11.71
2023-05-19T23:54:33.766Z,11.59
2023-05-19T23:57:04.082Z,11.60
2023-05-19T23:59:31.363Z,11.59
